Alkor — DBND — position and weather

sailwx.info

Track history (hours):
 
Tides and Currents Weather Stations Pressure Air Temp Water Temp Dewpoint Dewpoint Depression Visibility Wind Speed Wind Dir Waves Ship Positions

Oceanographic research ship Alkor (Germany)

Ship's website: http://www.briese.de/

Detailed information on ship capabilities available from University of Delaware's Ocean Information Center.

Last reported at 2018-May-27 21:00 UTC. Time now 2018-May-27 21:16 UTC.
Position N 55°45' E 015°10'.

Length 55 m; draft 4.2 m.

Type: Ship. MMSI: 211216512.

Date/timePositionNaut miles runAvg speedWind from/ knotsBaromVisibWave heightAir tempDewpointWater temp
2018-May-27 21:00N 55°45' E 015°10'0 0.1
2018-May-27 20:30N 55°45' E 015°10'0 0.2
2018-May-27 20:00N 55°45' E 015°09'0 0.5
2018-May-27 19:31N 55°45' E 015°09'0 0.3
2018-May-27 19:00N 55°45' E 015°09'0 0.6
2018-May-27 18:30N 55°45' E 015°08'0 0.7
2018-May-27 18:00N 55°45' E 015°08'0 0.5
2018-May-27 17:30N 55°45' E 015°08'0 0.6
2018-May-27 17:00N 55°44' E 015°07'0 0.4
2018-May-27 16:30N 55°44' E 015°07'2 4.9
2018-May-27 16:00N 55°44' E 015°12'3 5.1
2018-May-27 15:30N 55°44' E 015°16'2 5.0
2018-May-27 15:00N 55°44' E 015°21'1 2.4
2018-May-27 14:30N 55°44' E 015°23'1 2.5
2018-May-27 14:01N 55°44' E 015°21'3 6.3
2018-May-27 13:30N 55°44' E 015°26'510.9
2018-May-27 13:01N 55°42' E 015°35'611.5
2018-May-27 12:31N 55°38' E 015°43'1 2.3
2018-May-27 12:01N 55°37' E 015°43'1 2.9
2018-May-27 11:29N 55°36' E 015°41'2 4.6
2018-May-27 11:00N 55°34' E 015°43'3 5.8
2018-May-27 10:30N 55°32' E 015°45'3 6.1
2018-May-27 10:00N 55°29' E 015°48'3 1.5
2018-May-27 08:17N 55°27' E 015°45'311.2
2018-May-27 07:59N 55°24' E 015°45'511.2
2018-May-27 07:30N 55°18' E 015°46'1 0.7
2018-May-27 06:15N 55°18' E 015°45'0 0.1
2018-May-27 06:00N 55°18' E 015°45'1 1.3
2018-May-27 05:29N 55°18' E 015°44'0 0.3
2018-May-27 05:00N 55°18' E 015°44'1 1.1
2018-May-27 04:30N 55°18' E 015°45'1 1.0
2018-May-27 04:00N 55°18' E 015°46'0 0.2
2018-May-27 03:21N 55°18' E 015°46'1 1.8
2018-May-27 02:58N 55°17' E 015°45'0 0.9
2018-May-27 02:30N 55°17' E 015°44'0 0.6
2018-May-27 01:59N 55°17' E 015°43'1 1.1
2018-May-27 01:20N 55°18' E 015°45'0 1.0
2018-May-27 01:00N 55°18' E 015°45'0 1.0
2018-May-27 00:30N 55°18' E 015°46'1 1.1
2018-May-27 00:00N 55°18' E 015°47'0 0.1
2018-May-26 23:30N 55°18' E 015°47'1 1.9
2018-May-26 22:55N 55°18' E 015°45'1 2.1
2018-May-26 22:28N 55°18' E 015°47'1 2.5
2018-May-26 21:57N 55°17' E 015°45'1 1.3
2018-May-26 21:25N 55°17' E 015°44'1 3.1
2018-May-26 21:00N 55°18' E 015°45'1 1.0
2018-May-26 20:24N 55°18' E 015°45'0 0.3
2018-May-26 20:01N 55°17' E 015°45'2 3.2
2018-May-26 19:25N 55°16' E 015°43'1 2.8
2018-May-26 19:00N 55°17' E 015°44'1 0.8
2018-May-26 18:21N 55°17' E 015°44'0 0.9
2018-May-26 17:53N 55°17' E 015°43'1 2.2
2018-May-26 17:30N 55°17' E 015°44'2 2.9
2018-May-26 16:44N 55°18' E 015°48'1 1.8
2018-May-26 16:26N 55°18' E 015°47'2 2.1
2018-May-26 15:20N 55°17' E 015°43'1 1.4
2018-May-26 14:48N 55°17' E 015°43'1 4.0
2018-May-26 14:31N 55°17' E 015°44'0 1.0
2018-May-26 14:00N 55°17' E 015°45'0 0.1
2018-May-26 13:30N 55°18' E 015°45'1 1.4
2018-May-26 13:00N 55°18' E 015°46'1 1.3
2018-May-26 12:21N 55°19' E 015°47'1 1.8
2018-May-26 12:01N 55°18' E 015°46'0 0.5
2018-May-26 11:30N 55°18' E 015°46'0 0.5
2018-May-26 11:00N 55°18' E 015°46'1 1.2
2018-May-26 10:30N 55°18' E 015°45'0 0.8
2018-May-26 10:00N 55°18' E 015°45'1 2.2
2018-May-26 09:30N 55°17' E 015°44'0 1.0
2018-May-26 09:00N 55°17' E 015°44'0 0.9
2018-May-26 08:30N 55°17' E 015°45'0 0.2
2018-May-26 07:58N 55°17' E 015°45'1 2.4
2018-May-26 07:30N 55°17' E 015°44'0 0.8
2018-May-26 07:01N 55°17' E 015°44'0 0.7
2018-May-26 06:30N 55°17' E 015°45'1 0.5
2018-May-26 05:30N 55°18' E 015°45'1 2.1
2018-May-26 05:00N 55°18' E 015°47'0 0.9
2018-May-26 04:30N 55°18' E 015°48'2 3.1
2018-May-26 04:01N 55°18' E 015°45'1 1.5
2018-May-26 03:30N 55°17' E 015°44'0 0.2
2018-May-26 03:00N 55°17' E 015°44'0 0.7
2018-May-26 02:28N 55°17' E 015°45'0 0.1
2018-May-26 02:00N 55°18' E 015°45'1 1.1
2018-May-26 01:31N 55°17' E 015°44'0 0.7
2018-May-26 01:00N 55°17' E 015°44'1 1.2
2018-May-26 00:30N 55°17' E 015°45'0 0.7
2018-May-26 00:00N 55°17' E 015°45'0 0.1
2018-May-25 23:30N 55°17' E 015°45'0 0.0
2018-May-25 23:01N 55°17' E 015°45'1 1.5
2018-May-25 22:30N 55°17' E 015°46'611.8
2018-May-25 22:00N 55°18' E 015°57'2 4.4
2018-May-25 21:30N 55°17' E 016°01'4 8.7
2018-May-25 21:00N 55°18' E 016°08'4 7.7
2018-May-25 20:30N 55°18' E 016°15'4 7.9
2018-May-25 20:00N 55°17' E 016°22'5 9.3
2018-May-25 19:31N 55°17' E 016°30'3 6.1
2018-May-25 19:01N 55°14' E 016°30'611.0
2018-May-25 18:30N 55°09' E 016°30'2 3.6
2018-May-25 18:01N 55°07' E 016°28'611.1
2018-May-25 17:28N 55°07' E 016°18'2 3.5
2018-May-25 17:00N 55°07' E 016°15'5 9.0
2018-May-25 16:31N 55°02' E 016°15'5 9.3
2018-May-25 16:00N 54°58' E 016°15'3 5.6
2018-May-25 15:31N 54°60' E 016°11'611.4
2018-May-25 15:01N 55°04' E 016°05'4 8.8
2018-May-25 14:31N 55°07' E 016°00'2 4.9
2018-May-25 14:00N 55°05' E 016°00'611.1
2018-May-25 13:30N 54°59' E 016°00'2 4.1
2018-May-25 13:01N 54°57' E 015°60'510.3
2018-May-25 12:30N 54°52' E 016°00'5 9.7
2018-May-25 12:00N 54°47' E 015°60'3 5.7
2018-May-25 11:29N 54°47' E 015°55'510.6
2018-May-25 10:59N 54°48' E 015°46'2 3.3
2018-May-25 10:31N 54°46' E 015°45'611.0
2018-May-25 10:00N 54°41' E 015°45'3 6.8
2018-May-25 09:30N 54°37' E 015°45'3 6.5
2018-May-25 09:00N 54°37' E 015°39'510.0
2018-May-25 08:30N 54°38' E 015°30'2 4.2
2018-May-25 08:00N 54°37' E 015°27'611.1
2018-May-25 07:27N 54°38' E 015°17'0 0.9
2018-May-25 06:59N 54°38' E 015°16'510.7
2018-May-25 06:29N 54°43' E 015°21'611.7
2018-May-25 05:59N 54°47' E 015°28'1 2.2
2018-May-25 05:29N 54°47' E 015°29'611.3
2018-May-25 05:00N 54°47' E 015°20'3 5.9
2018-May-25 04:30N 54°47' E 015°15'4 8.8
2018-May-25 04:00N 54°47' E 015°07'4 8.1
2018-May-25 03:31N 54°48' E 015°00'3 6.9
2018-May-25 03:00N 54°50' E 015°04'611.4
2018-May-25 02:30N 54°55' E 015°11'4 7.8
2018-May-25 02:00N 54°57' E 015°15'4 8.2
2018-May-25 01:30N 54°57' E 015°22'5 9.2
2018-May-25 01:00N 54°58' E 015°30'2 3.8
2018-May-25 00:30N 54°58' E 015°34'611.8
2018-May-25 00:00N 54°58' E 015°44'1 1.1
2018-May-24 23:31N 54°57' E 015°44'611.3
2018-May-24 23:00N 55°03' E 015°45'510.0
2018-May-24 22:30N 55°08' E 015°45'2 4.5
2018-May-24 22:00N 55°08' E 015°42'611.3
2018-May-24 21:30N 55°08' E 015°32'2 3.6
2018-May-24 21:00N 55°07' E 015°28'611.1
2018-May-24 20:30N 55°08' E 015°19'2 4.5
2018-May-24 20:00N 55°08' E 015°15'510.3
2018-May-24 19:30N 55°11' E 015°09'611.1
2018-May-24 19:01N 55°16' E 015°03'2 4.6
2018-May-24 18:30N 55°17' E 014°60'4 8.9
2018-May-24 18:01N 55°17' E 015°08'5 9.7
2018-May-24 17:30N 55°18' E 015°16'2 4.5
2018-May-24 17:00N 55°17' E 015°20'611.3
2018-May-24 16:30N 55°18' E 015°30'1 2.2
2018-May-24 16:00N 55°17' E 015°32'611.8
2018-May-24 15:31N 55°17' E 015°42'2 3.6
2018-May-24 15:00N 55°18' E 015°45'510.2
2018-May-24 14:30N 55°21' E 015°51'611.9
2018-May-24 14:00N 55°26' E 015°58'1 2.9
2018-May-24 13:30N 55°27' E 015°59'34 7.5
2018-May-24 09:00N 55°28' E 014°60'4 7.6
2018-May-24 08:30N 55°28' E 014°53'5 9.5
2018-May-24 08:01N 55°28' E 014°45'2 4.0
2018-May-24 07:30N 55°30' E 014°45'611.5
2018-May-24 07:00N 55°35' E 014°45'2 4.4
2018-May-24 06:30N 55°38' E 014°45'610.8
2018-May-24 06:00N 55°38' E 014°55'3 6.2
2018-May-24 05:28N 55°37' E 015°01'5 9.4
2018-May-24 04:55N 55°38' E 015°10'3 6.9
2018-May-24 04:30N 55°38' E 015°15'4 7.4
2018-May-24 04:01N 55°37' E 015°21'5 9.6
2018-May-24 03:30N 55°37' E 015°30'2 4.3
2018-May-24 03:00N 55°37' E 015°34'611.3
2018-May-24 02:30N 55°37' E 015°44'2 3.9
2018-May-24 02:00N 55°38' E 015°47'611.6
2018-May-24 01:30N 55°38' E 015°57'2 4.5
2018-May-24 01:00N 55°38' E 016°02'611.7
2018-May-24 00:30N 55°37' E 016°12'2 3.9
2018-May-24 00:00N 55°37' E 016°15'611.8
2018-May-23 23:31N 55°31' E 016°15'3 6.8
2018-May-23 23:00N 55°27' E 016°15'5 9.3
2018-May-23 22:30N 55°27' E 016°24'4 7.2
2018-May-23 22:00N 55°28' E 016°30'5 9.6
2018-May-23 21:30N 55°32' E 016°30'510.4
2018-May-23 21:00N 55°37' E 016°30'2 4.0
2018-May-23 20:30N 55°39' E 016°30'611.6
2018-May-23 20:00N 55°45' E 016°30'2 4.2
2018-May-23 19:30N 55°47' E 016°30'611.4
2018-May-23 19:00N 55°47' E 016°20'3 5.7
2018-May-23 18:31N 55°48' E 016°14'4 8.5
2018-May-23 18:01N 55°48' E 016°07'4 7.6
2018-May-23 17:31N 55°47' E 016°00'4 7.9
2018-May-23 17:00N 55°48' E 016°07'611.6
2018-May-23 16:30N 55°48' E 016°17'611.5
2018-May-23 16:00N 55°49' E 016°28'611.6
2018-May-23 15:30N 55°49' E 016°38'510.8
2018-May-23 15:00N 55°49' E 016°47'611.3
2018-May-23 14:30N 55°50' E 016°57'611.6
2018-May-23 14:00N 55°50' E 017°08'2711.6
2018-May-23 11:39N 55°52' E 017°56'311.4
2018-May-23 11:25N 55°52' E 018°01'610.9
2018-May-23 10:51N 55°53' E 018°12'0 0.9
2018-May-23 10:28N 55°53' E 018°13'4 8.8
2018-May-23 09:57N 55°55' E 018°20'4 9.6
2018-May-23 09:30N 55°55' E 018°27'  
2018-May-19 18:48N 56°03' E 019°10'411.3
2018-May-19 18:28N 55°60' E 019°06'3 3.5
2018-May-19 17:35N 55°57' E 019°03'1 8.7
2018-May-19 17:29N 55°56' E 019°02'511.3
2018-May-19 17:00N 55°53' E 018°54'611.3
2018-May-19 16:30N 55°49' E 018°46'1011.2
2018-May-19 15:34N 55°43' E 018°32'111.1
2018-May-19 15:27N 55°42' E 018°30'511.3
2018-May-19 15:00N 55°39' E 018°23'3 5.9
2018-May-19 14:30N 55°37' E 018°19'4 7.8
2018-May-19 13:58N 55°33' E 018°19'511.4
2018-May-19 13:31N 55°28' E 018°19'9 6.3
2018-May-19 12:03N 55°19' E 018°27'111.4
2018-May-19 11:56N 55°19' E 018°29'511.4
2018-May-19 11:30N 55°16' E 018°36'2 3.2
2018-May-19 11:00N 55°15' E 018°38'711.2
2018-May-19 10:22N 55°11' E 018°49'1 2.1
2018-May-19 09:59N 55°10' E 018°49'1 2.1
2018-May-19 09:30N 55°09' E 018°50'910.7
2018-May-19 08:41N 55°03' E 019°01'210.7
2018-May-19 08:30N 55°02' E 019°03'4 7.1
2018-May-19 08:00N 54°59' E 019°07'2 3.1
2018-May-19 07:30N 54°58' E 019°08'2 2.4
2018-May-19 06:50N 54°56' E 019°08'1 2.9
2018-May-19 06:30N 54°55' E 019°08'4 8.6
2018-May-19 06:00N 54°51' E 019°11'5 9.3
2018-May-19 05:26N 54°47' E 019°16'3 7.6
2018-May-19 05:00N 54°44' E 019°17'1 2.4
2018-May-19 04:30N 54°42' E 019°17'1 2.7
2018-May-19 04:00N 54°41' E 019°17'1 1.3
2018-May-19 03:30N 54°40' E 019°17'1 1.9
2018-May-19 02:59N 54°41' E 019°16'2 4.7
2018-May-19 02:30N 54°44' E 019°17'1 3.0
2018-May-19 02:00N 54°45' E 019°17'0 0.7
2018-May-19 01:31N 54°45' E 019°17'0 0.7
2018-May-19 00:59N 54°44' E 019°17'0 0.5
2018-May-19 00:31N 54°44' E 019°17'0 0.3
2018-May-19 00:01N 54°44' E 019°17'0 0.5
2018-May-18 23:29N 54°44' E 019°17'0 0.7
2018-May-18 23:00N 54°43' E 019°17'0 0.5
2018-May-18 22:30N 54°43' E 019°17'0 0.2
2018-May-18 22:01N 54°43' E 019°17'0 0.1
2018-May-18 21:30N 54°43' E 019°17'1 2.6
2018-May-18 21:01N 54°44' E 019°15'610.4
2018-May-18 20:29N 54°48' E 019°09'1 2.0
2018-May-18 19:59N 54°49' E 019°08'4 9.2
2018-May-18 19:30N 54°53' E 019°11'1 1.7
2018-May-18 18:56N 54°54' E 019°12'4 9.3
2018-May-18 18:30N 54°57' E 019°08'3 6.5
2018-May-18 18:00N 54°60' E 019°05'1 1.7
2018-May-18 17:30N 54°59' E 019°04'4 7.9
2018-May-18 17:01N 54°56' E 018°59'4 7.7
2018-May-18 16:30N 54°54' E 018°54'2 3.2
2018-May-18 15:59N 54°55' E 018°52'611.3
2018-May-18 15:30N 54°59' E 018°44'3 5.1
2018-May-18 15:00N 55°00' E 018°41'1 1.3
2018-May-18 14:30N 55°00' E 018°40'611.5
2018-May-18 14:00N 55°05' E 018°33'54 4.2
2018-May-18 01:14N 55°23' E 017°04'310.0
2018-May-18 00:58N 55°23' E 016°59'510.0
2018-May-18 00:30N 55°22' E 016°51'510.1
2018-May-18 00:01N 55°21' E 016°42'13 9.9
2018-May-17 22:43N 55°20' E 016°20'3 9.6
2018-May-17 22:24N 55°19' E 016°15'9 9.5
2018-May-17 21:30N 55°18' E 015°60'  
Track history (hours):
 
Tides and Currents Weather Stations Pressure Air Temp Water Temp Dewpoint Dewpoint Depression Visibility Wind Speed Wind Dir Waves Ship Positions

Oceanographic research ship Alkor (Germany)

Ship's website: http://www.briese.de/

Detailed information on ship capabilities available from University of Delaware's Ocean Information Center.

Last reported at 2018-May-27 21:00 UTC. Time now 2018-May-27 21:17 UTC.
Position N 55°45' E 015°10'.

Length 55 m; draft 4.2 m.

Type: Ship. MMSI: 211216512.

Date/timePositionNaut miles runAvg speedWind from/ knotsBaromVisibWave heightAir tempDewpointWater temp
2018-May-27 21:00N 55°45' E 015°10'0 0.1
2018-May-27 20:30N 55°45' E 015°10'0 0.2
2018-May-27 20:00N 55°45' E 015°09'0 0.5
2018-May-27 19:31N 55°45' E 015°09'0 0.3
2018-May-27 19:00N 55°45' E 015°09'0 0.6
2018-May-27 18:30N 55°45' E 015°08'0 0.7
2018-May-27 18:00N 55°45' E 015°08'0 0.5
2018-May-27 17:30N 55°45' E 015°08'0 0.6
2018-May-27 17:00N 55°44' E 015°07'0 0.4
2018-May-27 16:30N 55°44' E 015°07'2 4.9
2018-May-27 16:00N 55°44' E 015°12'3 5.1
2018-May-27 15:30N 55°44' E 015°16'2 5.0
2018-May-27 15:00N 55°44' E 015°21'1 2.4
2018-May-27 14:30N 55°44' E 015°23'1 2.5
2018-May-27 14:01N 55°44' E 015°21'3 6.3
2018-May-27 13:30N 55°44' E 015°26'510.9
2018-May-27 13:01N 55°42' E 015°35'611.5
2018-May-27 12:31N 55°38' E 015°43'1 2.3
2018-May-27 12:01N 55°37' E 015°43'1 2.9
2018-May-27 11:29N 55°36' E 015°41'2 4.6
2018-May-27 11:00N 55°34' E 015°43'3 5.8
2018-May-27 10:30N 55°32' E 015°45'3 6.1
2018-May-27 10:00N 55°29' E 015°48'3 1.5
2018-May-27 08:17N 55°27' E 015°45'311.2
2018-May-27 07:59N 55°24' E 015°45'511.2
2018-May-27 07:30N 55°18' E 015°46'1 0.7
2018-May-27 06:15N 55°18' E 015°45'0 0.1
2018-May-27 06:00N 55°18' E 015°45'1 1.3
2018-May-27 05:29N 55°18' E 015°44'0 0.3
2018-May-27 05:00N 55°18' E 015°44'1 1.1
2018-May-27 04:30N 55°18' E 015°45'1 1.0
2018-May-27 04:00N 55°18' E 015°46'0 0.2
2018-May-27 03:21N 55°18' E 015°46'1 1.8
2018-May-27 02:58N 55°17' E 015°45'0 0.9
2018-May-27 02:30N 55°17' E 015°44'0 0.6
2018-May-27 01:59N 55°17' E 015°43'1 1.1
2018-May-27 01:20N 55°18' E 015°45'0 1.0
2018-May-27 01:00N 55°18' E 015°45'0 1.0
2018-May-27 00:30N 55°18' E 015°46'1 1.1
2018-May-27 00:00N 55°18' E 015°47'0 0.1
2018-May-26 23:30N 55°18' E 015°47'1 1.9
2018-May-26 22:55N 55°18' E 015°45'1 2.1
2018-May-26 22:28N 55°18' E 015°47'1 2.5
2018-May-26 21:57N 55°17' E 015°45'1 1.3
2018-May-26 21:25N 55°17' E 015°44'1 3.1
2018-May-26 21:00N 55°18' E 015°45'1 1.0
2018-May-26 20:24N 55°18' E 015°45'0 0.3
2018-May-26 20:01N 55°17' E 015°45'2 3.2
2018-May-26 19:25N 55°16' E 015°43'1 2.8
2018-May-26 19:00N 55°17' E 015°44'1 0.8
2018-May-26 18:21N 55°17' E 015°44'0 0.9
2018-May-26 17:53N 55°17' E 015°43'1 2.2
2018-May-26 17:30N 55°17' E 015°44'2 2.9
2018-May-26 16:44N 55°18' E 015°48'1 1.8
2018-May-26 16:26N 55°18' E 015°47'2 2.1
2018-May-26 15:20N 55°17' E 015°43'1 1.4
2018-May-26 14:48N 55°17' E 015°43'1 4.0
2018-May-26 14:31N 55°17' E 015°44'0 1.0
2018-May-26 14:00N 55°17' E 015°45'0 0.1
2018-May-26 13:30N 55°18' E 015°45'1 1.4
2018-May-26 13:00N 55°18' E 015°46'1 1.3
2018-May-26 12:21N 55°19' E 015°47'1 1.8
2018-May-26 12:01N 55°18' E 015°46'0 0.5
2018-May-26 11:30N 55°18' E 015°46'0 0.5
2018-May-26 11:00N 55°18' E 015°46'1 1.2
2018-May-26 10:30N 55°18' E 015°45'0 0.8
2018-May-26 10:00N 55°18' E 015°45'1 2.2
2018-May-26 09:30N 55°17' E 015°44'0 1.0
2018-May-26 09:00N 55°17' E 015°44'0 0.9
2018-May-26 08:30N 55°17' E 015°45'0 0.2
2018-May-26 07:58N 55°17' E 015°45'1 2.4
2018-May-26 07:30N 55°17' E 015°44'0 0.8
2018-May-26 07:01N 55°17' E 015°44'0 0.7
2018-May-26 06:30N 55°17' E 015°45'1 0.5
2018-May-26 05:30N 55°18' E 015°45'1 2.1
2018-May-26 05:00N 55°18' E 015°47'0 0.9
2018-May-26 04:30N 55°18' E 015°48'2 3.1
2018-May-26 04:01N 55°18' E 015°45'1 1.5
2018-May-26 03:30N 55°17' E 015°44'0 0.2
2018-May-26 03:00N 55°17' E 015°44'0 0.7
2018-May-26 02:28N 55°17' E 015°45'0 0.1
2018-May-26 02:00N 55°18' E 015°45'1 1.1
2018-May-26 01:31N 55°17' E 015°44'0 0.7
2018-May-26 01:00N 55°17' E 015°44'1 1.2
2018-May-26 00:30N 55°17' E 015°45'0 0.7
2018-May-26 00:00N 55°17' E 015°45'0 0.1
2018-May-25 23:30N 55°17' E 015°45'0 0.0
2018-May-25 23:01N 55°17' E 015°45'1 1.5
2018-May-25 22:30N 55°17' E 015°46'611.8
2018-May-25 22:00N 55°18' E 015°57'2 4.4
2018-May-25 21:30N 55°17' E 016°01'4 8.7
2018-May-25 21:00N 55°18' E 016°08'4 7.7
2018-May-25 20:30N 55°18' E 016°15'4 7.9
2018-May-25 20:00N 55°17' E 016°22'5 9.3
2018-May-25 19:31N 55°17' E 016°30'3 6.1
2018-May-25 19:01N 55°14' E 016°30'611.0
2018-May-25 18:30N 55°09' E 016°30'2 3.6
2018-May-25 18:01N 55°07' E 016°28'611.1
2018-May-25 17:28N 55°07' E 016°18'2 3.5
2018-May-25 17:00N 55°07' E 016°15'5 9.0
2018-May-25 16:31N 55°02' E 016°15'5 9.3
2018-May-25 16:00N 54°58' E 016°15'3 5.6
2018-May-25 15:31N 54°60' E 016°11'611.4
2018-May-25 15:01N 55°04' E 016°05'4 8.8
2018-May-25 14:31N 55°07' E 016°00'2 4.9
2018-May-25 14:00N 55°05' E 016°00'611.1
2018-May-25 13:30N 54°59' E 016°00'2 4.1
2018-May-25 13:01N 54°57' E 015°60'510.3
2018-May-25 12:30N 54°52' E 016°00'5 9.7
2018-May-25 12:00N 54°47' E 015°60'3 5.7
2018-May-25 11:29N 54°47' E 015°55'510.6
2018-May-25 10:59N 54°48' E 015°46'2 3.3
2018-May-25 10:31N 54°46' E 015°45'611.0
2018-May-25 10:00N 54°41' E 015°45'3 6.8
2018-May-25 09:30N 54°37' E 015°45'3 6.5
2018-May-25 09:00N 54°37' E 015°39'510.0
2018-May-25 08:30N 54°38' E 015°30'2 4.2
2018-May-25 08:00N 54°37' E 015°27'611.1
2018-May-25 07:27N 54°38' E 015°17'0 0.9
2018-May-25 06:59N 54°38' E 015°16'510.7
2018-May-25 06:29N 54°43' E 015°21'611.7
2018-May-25 05:59N 54°47' E 015°28'1 2.2
2018-May-25 05:29N 54°47' E 015°29'611.3
2018-May-25 05:00N 54°47' E 015°20'3 5.9
2018-May-25 04:30N 54°47' E 015°15'4 8.8
2018-May-25 04:00N 54°47' E 015°07'4 8.1
2018-May-25 03:31N 54°48' E 015°00'3 6.9
2018-May-25 03:00N 54°50' E 015°04'611.4
2018-May-25 02:30N 54°55' E 015°11'4 7.8
2018-May-25 02:00N 54°57' E 015°15'4 8.2
2018-May-25 01:30N 54°57' E 015°22'5 9.2
2018-May-25 01:00N 54°58' E 015°30'2 3.8
2018-May-25 00:30N 54°58' E 015°34'611.8
2018-May-25 00:00N 54°58' E 015°44'1 1.1
2018-May-24 23:31N 54°57' E 015°44'611.3
2018-May-24 23:00N 55°03' E 015°45'510.0
2018-May-24 22:30N 55°08' E 015°45'2 4.5
2018-May-24 22:00N 55°08' E 015°42'611.3
2018-May-24 21:30N 55°08' E 015°32'2 3.6
2018-May-24 21:00N 55°07' E 015°28'611.1
2018-May-24 20:30N 55°08' E 015°19'2 4.5
2018-May-24 20:00N 55°08' E 015°15'510.3
2018-May-24 19:30N 55°11' E 015°09'611.1
2018-May-24 19:01N 55°16' E 015°03'2 4.6
2018-May-24 18:30N 55°17' E 014°60'4 8.9
2018-May-24 18:01N 55°17' E 015°08'5 9.7
2018-May-24 17:30N 55°18' E 015°16'2 4.5
2018-May-24 17:00N 55°17' E 015°20'611.3
2018-May-24 16:30N 55°18' E 015°30'1 2.2
2018-May-24 16:00N 55°17' E 015°32'611.8
2018-May-24 15:31N 55°17' E 015°42'2 3.6
2018-May-24 15:00N 55°18' E 015°45'510.2
2018-May-24 14:30N 55°21' E 015°51'611.9
2018-May-24 14:00N 55°26' E 015°58'1 2.9
2018-May-24 13:30N 55°27' E 015°59'34 7.5
2018-May-24 09:00N 55°28' E 014°60'4 7.6
2018-May-24 08:30N 55°28' E 014°53'5 9.5
2018-May-24 08:01N 55°28' E 014°45'2 4.0
2018-May-24 07:30N 55°30' E 014°45'611.5
2018-May-24 07:00N 55°35' E 014°45'2 4.4
2018-May-24 06:30N 55°38' E 014°45'610.8
2018-May-24 06:00N 55°38' E 014°55'3 6.2
2018-May-24 05:28N 55°37' E 015°01'5 9.4
2018-May-24 04:55N 55°38' E 015°10'3 6.9
2018-May-24 04:30N 55°38' E 015°15'4 7.4
2018-May-24 04:01N 55°37' E 015°21'5 9.6
2018-May-24 03:30N 55°37' E 015°30'2 4.3
2018-May-24 03:00N 55°37' E 015°34'611.3
2018-May-24 02:30N 55°37' E 015°44'2 3.9
2018-May-24 02:00N 55°38' E 015°47'611.6
2018-May-24 01:30N 55°38' E 015°57'2 4.5
2018-May-24 01:00N 55°38' E 016°02'611.7
2018-May-24 00:30N 55°37' E 016°12'2 3.9
2018-May-24 00:00N 55°37' E 016°15'611.8
2018-May-23 23:31N 55°31' E 016°15'3 6.8
2018-May-23 23:00N 55°27' E 016°15'5 9.3
2018-May-23 22:30N 55°27' E 016°24'4 7.2
2018-May-23 22:00N 55°28' E 016°30'5 9.6
2018-May-23 21:30N 55°32' E 016°30'510.4
2018-May-23 21:00N 55°37' E 016°30'2 4.0
2018-May-23 20:30N 55°39' E 016°30'611.6
2018-May-23 20:00N 55°45' E 016°30'2 4.2
2018-May-23 19:30N 55°47' E 016°30'611.4
2018-May-23 19:00N 55°47' E 016°20'3 5.7
2018-May-23 18:31N 55°48' E 016°14'4 8.5
2018-May-23 18:01N 55°48' E 016°07'4 7.6
2018-May-23 17:31N 55°47' E 016°00'4 7.9
2018-May-23 17:00N 55°48' E 016°07'611.6
2018-May-23 16:30N 55°48' E 016°17'611.5
2018-May-23 16:00N 55°49' E 016°28'611.6
2018-May-23 15:30N 55°49' E 016°38'510.8
2018-May-23 15:00N 55°49' E 016°47'611.3
2018-May-23 14:30N 55°50' E 016°57'611.6
2018-May-23 14:00N 55°50' E 017°08'2711.6
2018-May-23 11:39N 55°52' E 017°56'311.4
2018-May-23 11:25N 55°52' E 018°01'610.9
2018-May-23 10:51N 55°53' E 018°12'0 0.9
2018-May-23 10:28N 55°53' E 018°13'4 8.8
2018-May-23 09:57N 55°55' E 018°20'4 9.6
2018-May-23 09:30N 55°55' E 018°27'  
2018-May-19 18:48N 56°03' E 019°10'411.3
2018-May-19 18:28N 55°60' E 019°06'3 3.5
2018-May-19 17:35N 55°57' E 019°03'1 8.7
2018-May-19 17:29N 55°56' E 019°02'511.3
2018-May-19 17:00N 55°53' E 018°54'611.3
2018-May-19 16:30N 55°49' E 018°46'1011.2
2018-May-19 15:34N 55°43' E 018°32'111.1
2018-May-19 15:27N 55°42' E 018°30'511.3
2018-May-19 15:00N 55°39' E 018°23'3 5.9
2018-May-19 14:30N 55°37' E 018°19'4 7.8
2018-May-19 13:58N 55°33' E 018°19'511.4
2018-May-19 13:31N 55°28' E 018°19'9 6.3
2018-May-19 12:03N 55°19' E 018°27'111.4
2018-May-19 11:56N 55°19' E 018°29'511.4
2018-May-19 11:30N 55°16' E 018°36'2 3.2
2018-May-19 11:00N 55°15' E 018°38'711.2
2018-May-19 10:22N 55°11' E 018°49'1 2.1
2018-May-19 09:59N 55°10' E 018°49'1 2.1
2018-May-19 09:30N 55°09' E 018°50'910.7
2018-May-19 08:41N 55°03' E 019°01'210.7
2018-May-19 08:30N 55°02' E 019°03'4 7.1
2018-May-19 08:00N 54°59' E 019°07'2 3.1
2018-May-19 07:30N 54°58' E 019°08'2 2.4
2018-May-19 06:50N 54°56' E 019°08'1 2.9
2018-May-19 06:30N 54°55' E 019°08'4 8.6
2018-May-19 06:00N 54°51' E 019°11'5 9.3
2018-May-19 05:26N 54°47' E 019°16'3 7.6
2018-May-19 05:00N 54°44' E 019°17'1 2.4
2018-May-19 04:30N 54°42' E 019°17'1 2.7
2018-May-19 04:00N 54°41' E 019°17'1 1.3
2018-May-19 03:30N 54°40' E 019°17'1 1.9
2018-May-19 02:59N 54°41' E 019°16'2 4.7
2018-May-19 02:30N 54°44' E 019°17'1 3.0
2018-May-19 02:00N 54°45' E 019°17'0 0.7
2018-May-19 01:31N 54°45' E 019°17'0 0.7
2018-May-19 00:59N 54°44' E 019°17'0 0.5
2018-May-19 00:31N 54°44' E 019°17'0 0.3
2018-May-19 00:01N 54°44' E 019°17'0 0.5
2018-May-18 23:29N 54°44' E 019°17'0 0.7
2018-May-18 23:00N 54°43' E 019°17'0 0.5
2018-May-18 22:30N 54°43' E 019°17'0 0.2
2018-May-18 22:01N 54°43' E 019°17'0 0.1
2018-May-18 21:30N 54°43' E 019°17'1 2.6
2018-May-18 21:01N 54°44' E 019°15'610.4
2018-May-18 20:29N 54°48' E 019°09'1 2.0
2018-May-18 19:59N 54°49' E 019°08'4 9.2
2018-May-18 19:30N 54°53' E 019°11'1 1.7
2018-May-18 18:56N 54°54' E 019°12'4 9.3
2018-May-18 18:30N 54°57' E 019°08'3 6.5
2018-May-18 18:00N 54°60' E 019°05'1 1.7
2018-May-18 17:30N 54°59' E 019°04'4 7.9
2018-May-18 17:01N 54°56' E 018°59'4 7.7
2018-May-18 16:30N 54°54' E 018°54'2 3.2
2018-May-18 15:59N 54°55' E 018°52'611.3
2018-May-18 15:30N 54°59' E 018°44'3 5.1
2018-May-18 15:00N 55°00' E 018°41'1 1.3
2018-May-18 14:30N 55°00' E 018°40'611.5
2018-May-18 14:00N 55°05' E 018°33'54 4.2
2018-May-18 01:14N 55°23' E 017°04'310.0
2018-May-18 00:58N 55°23' E 016°59'510.0
2018-May-18 00:30N 55°22' E 016°51'510.1
2018-May-18 00:01N 55°21' E 016°42'13 9.9
2018-May-17 22:43N 55°20' E 016°20'3 9.6
2018-May-17 22:24N 55°19' E 016°15'9 9.5
2018-May-17 21:30N 55°18' E 015°60'  

Dump ship's entire track history